OBBI/BAH METAR and TAF weather

Enter ICAO airport designator
Station Type Date Time Source
OBBI METAR 2018/12/17 16:30 UTC NOAA

OBBI 171630Z VRB01KT CAVOK 21/14 Q1021 NOSIG


Station Type Date Time Source
OBBI Decoded METAR 2018/12/17 16:30 UTC NOAA

Bahrain International Airport , Bahrain (OBBI) 26-16N 050-39E 2M
Dec 17, 2018 - 11:30 AM EST / 2018.12.17 1630 UTC
Wind: Variable at 1 MPH (1 KT):0
Visibility: greater than 7 mile(s):0
Temperature: 69 F (21 C)
Dew Point: 57 F (14 C)
Relative Humidity: 64%
Pressure (altimeter): 30.15 in. Hg (1021 hPa)
ob: OBBI 171630Z VRB01KT CAVOK 21/14 Q1021 NOSIG
cycle: 16

Station Type Date Time Source
OBBI TAF 2018/12/17 12:57 UTC NOAA

TAF TAF OBBI 171100Z 1712/1818 VRB05KT 9999 SCT025


Example: see airport list